ADDS TAF Board (Experimental) INFO Settings
IDs:

KMCI - Kansas City Intl, MO, US

Issued at 2338 UTC 30 Aug 2015
Updated at: 0245 UTC 31 Aug 2015
Time0153Z 31/03Z 31/04Z 31/05Z 31/06Z 31/07Z 31/08Z 31/09Z 31/10Z 31/11Z 31/12Z 31/13Z 31/14Z 31/15Z
Type OBS PRVL PRVL PRVL PRVL PRVL PRVL PRVL PRVL PRVL PRVL PRVL PRVL PRVL
VIS 10 >6 >6 >6 >6 >6 >6 >6 >6 3 3 3 3 >6
CIG -- -- -- -- -- -- -- -- -- -- -- -- -- --
Cover CLR SKC SKC SKC SKC SKC SKC SKC SKC SKC SKC SKC SKC FEW
FltCat VFR VFR VFR VFR VFR VFR VFR VFR VFR MVFR MVFR MVFR MVFR VFR
WX -- -- -- -- -- -- -- -- -- BR BR BR BR --
WDir 120 110 110 110 110 110 110 110 110 130 130 130 130 160
WSpd 6 7 7 7 7 7 7 7 7 5 5 5 5 10
WGst -- -- -- -- -- -- -- -- -- -- -- -- -- --
R01/19
XWnd -6 -7 -7 -7 -7 -7 -7 -7 -7 -4 -4 -4 -4 -5
HWnd -2 -1 -1 -1 -1 -1 -1 -1 -1 -2 -2 -2 -2 -8
R09/27
XWnd -2 -2 -2 -2 -2 -2 -2 -2 -2 -3 -3 -3 -3 -9
HWnd 5 7 7 7 7 7 7 7 7 4 4 4 4 4

NOTE: TEMPO conditions in [brackets]. Keep in mind TEMPO conditions might be better (lower impact) than prevailing conditions.

Raw TAF
KMCI 302338Z 3100/3124 11007KT P6SM SKC
  FM311100 13005KT 3SM BR SKC
  FM311500 16010KT P6SM FEW030
  FM311900 18012G16KT P6SM SCT050


Raw METAR
KMCI 310153Z 12006KT 10SM CLR 26/21 A2997 RMK AO2 SLP138 T02560206
KMCI 310053Z 11005KT 10SM FEW040 SCT250 26/17 A2996 RMK AO2 SLP134 T02560172
KMCI 302353Z 14007KT 10SM FEW040 28/18 A2996 RMK AO2 SLP135 T02780178 10294 20261 56013

METAR Board
Radar Display
Forecast Discussion

TAF Board Legend

Potential Impact
Threat None Slight Moderate High
Visibility (sm) ≥5.1 5.1>X≥3 3>X≥1 <1
Ceiling (100 ft) ≥30.1 30.1>X≥10 10>X≥5 <5
Wind Speed (kt) <10 10≤X<20 20≤X<30 ≥30
Wind Gust (kt) <15 15≤X<25 25≤X<35 ≥35
Weather No Wx Reported VCTS,-TS,-FZRA,SN TS,FZRA +TS,+FZRA,+SN